Time;durP1;ratioP1;P1;durP2;ratioP2;P2;SDS_P1;SDS_P2;PMS_P1;PMS_P2;Temp;Humidity;BMP_temperature;BMP_pressure;BME280_temperature;BME280_humidity;BME280_pressure;Samples;Min_cycle;Max_cycle;Signal;HPM_P1;HPM_P2
2023/05/06 00:01:11;;;;;;;12.75;9.85;;;11.10;99.90;;;;;;5135084;27;20047;-58
2023/05/06 00:03:37;;;;;;;16.70;11.27;;;10.90;99.90;;;;;;5118958;27;20046;-58
2023/05/06 00:06:05;;;;;;;11.82;9.77;;;11.00;99.90;;;;;;5135713;27;20051;-58
2023/05/06 00:08:31;;;;;;;13.77;10.52;;;10.90;99.90;;;;;;5136990;27;20134;-57
2023/05/06 00:10:57;;;;;;;128.07;14.02;;;10.90;99.90;;;;;;5135467;27;20142;-57
2023/05/06 00:13:23;;;;;;;19.85;16.10;;;10.80;99.90;;;;;;5135703;27;20155;-57
2023/05/06 00:15:48;;;;;;;19.20;15.93;;;10.70;99.90;;;;;;5135489;27;20035;-57
2023/05/06 00:18:14;;;;;;;22.90;19.38;;;10.60;99.90;;;;;;5134530;27;20558;-57
2023/05/06 00:20:40;;;;;;;27.50;20.45;;;10.60;99.90;;;;;;5134671;27;21002;-57
2023/05/06 00:23:06;;;;;;;24.48;19.40;;;10.80;99.90;;;;;;5136688;27;20035;-57
2023/05/06 00:25:32;;;;;;;23.05;18.92;;;12.60;99.90;;;;;;5135379;27;20039;-58
2023/05/06 00:27:58;;;;;;;25.27;17.05;;;10.40;99.90;;;;;;5135345;27;20481;-57
2023/05/06 00:30:24;;;;;;;17.27;13.95;;;10.40;99.90;;;;;;5135455;27;20049;-57
2023/05/06 00:32:50;;;;;;;14.35;12.60;;;10.30;99.90;;;;;;5117042;27;20046;-58
2023/05/06 00:35:16;;;;;;;30.10;13.07;;;10.20;99.90;;;;;;5115914;27;20301;-57
2023/05/06 00:37:45;;;;;;;20.52;9.77;;;10.30;99.90;;;;;;5135823;27;20231;-58
2023/05/06 00:40:12;;;;;;;14.85;12.20;;;9.90;99.90;;;;;;5135323;27;20050;-58
2023/05/06 00:42:38;;;;;;;14.25;10.18;;;10.10;99.90;;;;;;5134255;27;20133;-56
2023/05/06 00:45:05;;;;;;;11.45;9.40;;;10.10;99.90;;;;;;5133533;27;20497;-58
2023/05/06 00:47:32;;;;;;;11.05;9.85;;;10.20;99.90;;;;;;5133485;27;20096;-57
2023/05/06 00:49:58;;;;;;;13.93;10.60;;;10.10;99.90;;;;;;5132655;27;20649;-57
2023/05/06 00:52:23;;;;;;;19.30;13.73;;;10.10;99.90;;;;;;5134259;27;20046;-57
2023/05/06 00:54:49;;;;;;;20.27;12.80;;;10.30;99.90;;;;;;5135103;27;20042;-57
2023/05/06 00:57:15;;;;;;;18.83;12.70;;;10.50;99.90;;;;;;5134212;27;20067;-57
2023/05/06 00:59:41;;;;;;;14.60;10.93;;;10.30;99.90;;;;;;5133369;27;20033;-57
2023/05/06 01:02:08;;;;;;;13.02;10.15;;;10.30;99.90;;;;;;5115371;27;20046;-58
2023/05/06 01:04:34;;;;;;;17.50;12.20;;;10.50;99.90;;;;;;5133285;27;20046;-57
2023/05/06 01:07:24;;;;;;;20.65;12.88;;;10.60;99.90;;;;;;5135362;27;20039;-57
2023/05/06 01:10:12;;;;;;;25.45;14.00;;;10.40;99.90;;;;;;5132865;27;20379;-58
2023/05/06 01:13:11;;;;;;;17.38;12.73;;;10.70;99.90;;;;;;5114820;27;20570;-58
2023/05/06 01:15:54;;;;;;;18.95;12.80;;;10.50;99.90;;;;;;5128225;27;20133;-57
2023/05/06 01:18:22;;;;;;;22.02;14.07;;;10.50;99.90;;;;;;5133153;27;20056;-57
2023/05/06 01:20:49;;;;;;;18.55;13.05;;;10.60;99.90;;;;;;5133166;27;20046;-58
2023/05/06 01:23:16;;;;;;;16.00;12.57;;;10.70;99.90;;;;;;5132655;27;20434;-56
2023/05/06 01:25:42;;;;;;;17.35;12.65;;;10.60;99.90;;;;;;5132772;27;24214;-59
2023/05/06 01:28:10;;;;;;;20.58;13.68;;;10.80;99.90;;;;;;5135025;27;20396;-57
2023/05/06 01:31:04;;;;;;;18.52;13.40;;;10.60;99.90;;;;;;5132164;27;20387;-58
2023/05/06 01:33:43;;;;;;;14.38;11.65;;;10.60;99.90;;;;;;5127883;27;20138;-57
2023/05/06 01:36:23;;;;;;;18.80;11.45;;;10.60;99.90;;;;;;5134430;27;20038;-57
2023/05/06 01:39:10;;;;;;;15.90;11.77;;;10.60;99.90;;;;;;5133369;27;20178;-58
2023/05/06 01:41:40;;;;;;;19.88;12.65;;;10.40;99.90;;;;;;5134206;27;20617;-58
2023/05/06 01:44:07;;;;;;;15.48;12.05;;;10.50;99.90;;;;;;5132924;27;20054;-58
2023/05/06 01:46:33;;;;;;;32.58;13.35;;;10.40;99.90;;;;;;5134015;27;20057;-58
2023/05/06 01:49:03;;;;;;;23.25;13.57;;;10.30;99.90;;;;;;5132504;27;20034;-57
2023/05/06 01:51:32;;;;;;;17.83;12.13;;;10.50;99.90;;;;;;5114742;27;20038;-57
2023/05/06 01:53:57;;;;;;;17.40;11.98;;;10.40;99.90;;;;;;5114068;27;20117;-57
2023/05/06 01:56:23;;;;;;;18.17;11.32;;;10.50;99.90;;;;;;5133241;27;20062;-57
2023/05/06 01:58:49;;;;;;;18.35;12.02;;;10.50;99.90;;;;;;5101588;27;20034;-58
2023/05/06 02:01:15;;;;;;;13.40;10.68;;;10.50;99.90;;;;;;5132121;27;20050;-57
2023/05/06 02:03:41;;;;;;;16.73;13.40;;;10.30;99.90;;;;;;5114702;27;20102;-57
2023/05/06 02:06:06;;;;;;;16.17;11.32;;;10.30;99.90;;;;;;5133918;27;20084;-58
2023/05/06 02:08:32;;;;;;;19.92;14.32;;;10.40;99.90;;;;;;5133779;27;20046;-58
2023/05/06 02:10:58;;;;;;;16.50;13.65;;;10.40;99.90;;;;;;5132686;27;20215;-58
2023/05/06 02:13:24;;;;;;;18.70;14.10;;;10.40;99.90;;;;;;5131400;27;20093;-57
2023/05/06 02:15:53;;;;;;;18.60;14.18;;;10.40;99.90;;;;;;5133219;27;20467;-58
2023/05/06 02:18:19;;;;;;;18.48;13.95;;;10.30;99.90;;;;;;5132076;27;20042;-58
2023/05/06 02:20:44;;;;;;;18.73;14.35;;;10.50;99.90;;;;;;5131549;27;20051;-58
2023/05/06 02:23:10;;;;;;;17.65;12.55;;;10.20;99.90;;;;;;5131712;27;20054;-57
2023/05/06 02:25:36;;;;;;;19.27;13.82;;;10.30;99.90;;;;;;5131833;27;20097;-58
2023/05/06 02:28:02;;;;;;;16.27;12.18;;;10.40;99.90;;;;;;5132188;27;20050;-57
2023/05/06 02:30:31;;;;;;;17.00;13.30;;;10.60;99.90;;;;;;5113424;27;20065;-57
2023/05/06 02:32:57;;;;;;;18.17;13.48;;;10.60;99.90;;;;;;5132828;27;20073;-57
2023/05/06 02:35:23;;;;;;;19.48;14.40;;;11.70;99.90;;;;;;5111680;27;20070;-57
2023/05/06 02:37:48;;;;;;;21.27;13.60;;;10.60;99.90;;;;;;5133780;27;20068;-58
2023/05/06 02:40:14;;;;;;;21.23;14.45;;;10.40;99.90;;;;;;5130404;27;20042;-57
2023/05/06 02:42:40;;;;;;;22.40;14.40;;;10.40;99.90;;;;;;5133001;27;20088;-57
2023/05/06 02:45:07;;;;;;;26.08;15.75;;;10.40;99.90;;;;;;5132731;27;20059;-57
2023/05/06 02:47:32;;;;;;;25.13;15.60;;;10.50;99.90;;;;;;5114971;27;20043;-58
2023/05/06 02:49:58;;;;;;;22.50;15.82;;;10.30;99.90;;;;;;5132421;27;20414;-57
2023/05/06 02:52:24;;;;;;;20.70;14.52;;;10.40;99.90;;;;;;5133200;27;20656;-57
2023/05/06 02:54:50;;;;;;;21.10;14.43;;;10.20;99.90;;;;;;5133034;27;20134;-57
2023/05/06 02:57:16;;;;;;;23.25;15.55;;;11.30;99.90;;;;;;5133061;27;20054;-57
2023/05/06 02:59:41;;;;;;;22.27;14.40;;;10.20;99.90;;;;;;5131802;27;20046;-57
2023/05/06 03:02:07;;;;;;;20.15;13.93;;;10.70;99.90;;;;;;5115455;27;20174;-57
2023/05/06 03:04:33;;;;;;;19.80;14.30;;;10.10;99.90;;;;;;5132530;27;20046;-57
2023/05/06 03:06:58;;;;;;;18.33;12.98;;;11.00;99.90;;;;;;5132857;27;20142;-58
2023/05/06 03:09:24;;;;;;;28.50;15.82;;;10.00;99.90;;;;;;5134124;27;20248;-57
2023/05/06 03:11:50;;;;;;;23.77;14.40;;;10.00;99.90;;;;;;5119387;27;20038;-57
2023/05/06 03:14:16;;;;;;;27.92;16.10;;;9.90;99.90;;;;;;5136318;27;20027;-58
2023/05/06 03:16:41;;;;;;;20.30;14.02;;;9.70;99.90;;;;;;5136396;27;20035;-57
2023/05/06 03:19:07;;;;;;;29.40;17.00;;;9.90;99.90;;;;;;5136487;27;20143;-58
2023/05/06 03:21:33;;;;;;;18.90;12.23;;;9.80;99.90;;;;;;5118466;27;20042;-57
2023/05/06 03:23:59;;;;;;;78.97;14.25;;;9.60;99.90;;;;;;5135730;27;20057;-57
2023/05/06 03:26:25;;;;;;;105.72;13.82;;;9.30;99.90;;;;;;5136134;27;20039;-57
2023/05/06 03:28:50;;;;;;;157.70;12.48;;;10.20;99.90;;;;;;5136065;27;20411;-57
2023/05/06 03:31:16;;;;;;;464.45;19.30;;;9.40;99.90;;;;;;5136066;27;20050;-58
2023/05/06 03:33:42;;;;;;;267.15;15.38;;;9.50;99.90;;;;;;5135554;27;20449;-57
2023/05/06 03:36:07;;;;;;;351.30;16.85;;;9.20;99.90;;;;;;5136097;27;20142;-58
2023/05/06 03:38:33;;;;;;;107.18;11.25;;;9.20;99.90;;;;;;5136759;27;20051;-58
2023/05/06 03:40:59;;;;;;;88.60;11.18;;;10.20;99.90;;;;;;5135780;27;20114;-57
2023/05/06 03:43:25;;;;;;;261.17;16.38;;;9.10;99.90;;;;;;5135337;27;20500;-57
2023/05/06 03:45:50;;;;;;;141.05;10.77;;;9.10;99.90;;;;;;5136513;27;20051;-58
2023/05/06 03:48:16;;;;;;;480.98;16.98;;;9.10;99.90;;;;;;5134288;27;20126;-58
2023/05/06 03:50:42;;;;;;;45.45;9.18;;;9.10;99.90;;;;;;5134737;27;20129;-57
2023/05/06 03:53:08;;;;;;;278.80;14.88;;;9.00;99.90;;;;;;5135062;27;20635;-58
2023/05/06 03:55:33;;;;;;;19.60;8.23;;;9.00;99.90;;;;;;5136364;27;20121;-58
2023/05/06 03:58:00;;;;;;;20.88;7.57;;;8.70;99.90;;;;;;5134548;27;20487;-58
2023/05/06 04:00:25;;;;;;;14.75;8.32;;;8.90;99.90;;;;;;5136224;27;20464;-57
2023/05/06 04:02:51;;;;;;;28.55;10.88;;;9.00;99.90;;;;;;5135166;27;20122;-57
2023/05/06 04:05:17;;;;;;;9.13;6.35;;;8.80;99.90;;;;;;5115614;27;20107;-57
2023/05/06 04:07:43;;;;;;;9.52;6.35;;;8.90;99.90;;;;;;5136789;27;20111;-57
2023/05/06 04:10:09;;;;;;;9.52;6.63;;;8.90;99.90;;;;;;5134750;27;20095;-58
2023/05/06 04:12:34;;;;;;;10.75;8.05;;;8.90;99.90;;;;;;5134726;27;20049;-57
2023/05/06 04:15:00;;;;;;;14.30;10.52;;;8.90;99.90;;;;;;5134791;27;20042;-58
2023/05/06 04:17:26;;;;;;;17.48;7.95;;;9.00;99.90;;;;;;5134112;27;20039;-57
2023/05/06 04:19:52;;;;;;;11.20;6.07;;;9.00;99.90;;;;;;5135711;27;20763;-57
2023/05/06 04:22:18;;;;;;;10.93;6.03;;;8.80;99.90;;;;;;5132589;27;20050;-58
2023/05/06 04:24:44;;;;;;;11.63;5.40;;;8.90;99.90;;;;;;5133731;27;20042;-57
2023/05/06 04:27:10;;;;;;;14.35;7.15;;;8.60;99.90;;;;;;5134386;27;20094;-57
2023/05/06 04:29:36;;;;;;;6.03;4.30;;;9.10;99.90;;;;;;5135646;27;20088;-58
2023/05/06 04:32:03;;;;;;;9.40;5.13;;;9.00;99.90;;;;;;5114717;27;20055;-57
2023/05/06 04:34:30;;;;;;;16.25;8.32;;;8.90;99.90;;;;;;5134200;27;20087;-57
2023/05/06 04:36:57;;;;;;;6.82;4.78;;;9.10;99.90;;;;;;5134988;27;20043;-58
2023/05/06 04:39:23;;;;;;;12.10;7.68;;;9.10;99.90;;;;;;5135794;27;20066;-56
2023/05/06 04:41:49;;;;;;;10.93;7.43;;;9.10;99.90;;;;;;5134511;27;20125;-57
2023/05/06 04:44:15;;;;;;;11.32;7.38;;;9.40;99.90;;;;;;5134300;27;20050;-57
2023/05/06 04:46:41;;;;;;;11.82;8.20;;;9.30;99.90;;;;;;5115970;27;20034;-63
2023/05/06 04:49:07;;;;;;;15.50;10.27;;;9.30;99.90;;;;;;5135331;27;20058;-58
2023/05/06 04:51:32;;;;;;;14.25;8.68;;;9.40;99.90;;;;;;5133883;27;20038;-58
2023/05/06 04:53:58;;;;;;;15.07;10.90;;;9.60;99.90;;;;;;5133875;27;20444;-57
2023/05/06 04:56:24;;;;;;;27.27;17.52;;;9.90;99.90;;;;;;5114700;27;20506;-58
2023/05/06 04:58:50;;;;;;;21.83;14.55;;;9.70;99.90;;;;;;5115480;27;20030;-58
2023/05/06 05:01:18;;;;;;;23.60;15.80;;;9.90;99.90;;;;;;5134576;27;20132;-58
2023/05/06 05:03:44;;;;;;;22.25;15.80;;;10.10;99.90;;;;;;5134843;27;20039;-58
2023/05/06 05:06:12;;;;;;;28.67;17.38;;;10.20;99.90;;;;;;5097593;27;20049;-57
2023/05/06 05:08:38;;;;;;;24.90;16.88;;;10.10;99.90;;;;;;5136732;27;20047;-58
2023/05/06 05:11:07;;;;;;;23.83;16.15;;;10.30;99.90;;;;;;5133666;27;20149;-58
2023/05/06 05:13:33;;;;;;;21.17;16.13;;;10.40;99.90;;;;;;5113737;27;20081;-59
2023/05/06 05:15:59;;;;;;;29.77;18.38;;;10.70;99.90;;;;;;5081338;27;20042;-58
2023/05/06 05:18:27;;;;;;;25.35;18.85;;;10.60;99.90;;;;;;5114698;27;20047;-58
2023/05/06 05:20:53;;;;;;;28.08;18.27;;;10.60;99.90;;;;;;5131984;27;20043;-58
2023/05/06 05:23:19;;;;;;;25.50;18.63;;;10.60;99.90;;;;;;5135140;27;20397;-60
2023/05/06 05:25:45;;;;;;;35.53;20.98;;;10.80;99.90;;;;;;5132124;27;20089;-60
2023/05/06 05:28:11;;;;;;;33.85;20.33;;;10.80;99.90;;;;;;5132752;27;20458;-59
2023/05/06 05:30:37;;;;;;;31.00;20.15;;;10.60;99.90;;;;;;5132416;27;20061;-58
2023/05/06 05:33:02;;;;;;;29.60;19.00;;;10.70;99.90;;;;;;5132039;27;20146;-59
2023/05/06 05:35:28;;;;;;;26.80;18.52;;;10.80;99.90;;;;;;5112752;27;20035;-59
2023/05/06 05:37:54;;;;;;;36.30;22.80;;;10.70;99.90;;;;;;5133379;27;20078;-60
2023/05/06 05:40:20;;;;;;;33.63;21.40;;;10.80;99.90;;;;;;5115365;27;20526;-59
2023/05/06 05:42:45;;;;;;;38.00;22.25;;;10.60;99.90;;;;;;5132510;27;20041;-60
2023/05/06 05:45:11;;;;;;;34.97;21.55;;;10.80;99.90;;;;;;5113552;27;20461;-59
2023/05/06 05:47:37;;;;;;;44.03;22.42;;;10.90;99.90;;;;;;5131201;27;20036;-58
2023/05/06 05:50:03;;;;;;;40.25;23.75;;;10.80;99.90;;;;;;5133072;27;20047;-59
2023/05/06 05:52:29;;;;;;;32.42;20.38;;;10.90;99.90;;;;;;5113733;27;20046;-59
2023/05/06 05:54:54;;;;;;;30.85;20.05;;;10.90;99.90;;;;;;5114125;27;20050;-59
2023/05/06 05:57:20;;;;;;;43.67;23.70;;;10.80;99.90;;;;;;5132911;27;20031;-58
2023/05/06 05:59:46;;;;;;;36.28;22.58;;;10.80;99.90;;;;;;5133329;27;20043;-59
2023/05/06 06:02:12;;;;;;;36.80;21.40;;;10.90;99.90;;;;;;5132666;27;20538;-58
2023/05/06 06:04:37;;;;;;;32.55;20.85;;;10.90;99.90;;;;;;5131904;27;20039;-58
2023/05/06 06:07:03;;;;;;;35.60;21.17;;;11.00;99.90;;;;;;5132696;27;20088;-58
2023/05/06 06:09:29;;;;;;;30.30;20.42;;;10.70;99.90;;;;;;5135105;27;20371;-59
2023/05/06 06:11:55;;;;;;;31.92;20.30;;;10.90;99.90;;;;;;5113842;27;20034;-58
2023/05/06 06:14:21;;;;;;;35.25;21.13;;;11.00;99.90;;;;;;5131873;27;20064;-60
2023/05/06 06:16:47;;;;;;;32.88;21.40;;;11.10;99.90;;;;;;5113389;27;20975;-58
2023/05/06 06:19:14;;;;;;;29.27;20.30;;;11.00;99.90;;;;;;5103419;27;20053;-59
2023/05/06 06:21:39;;;;;;;26.85;19.05;;;11.10;99.90;;;;;;5131552;27;20598;-59
2023/05/06 06:24:05;;;;;;;28.20;19.30;;;11.00;99.90;;;;;;5131131;27;20115;-58
2023/05/06 06:26:31;;;;;;;30.73;18.58;;;11.00;99.90;;;;;;5131665;27;21330;-59
2023/05/06 06:28:57;;;;;;;31.90;20.00;;;11.00;99.90;;;;;;5131129;27;20047;-58
2023/05/06 06:31:22;;;;;;;34.22;21.48;;;11.10;99.90;;;;;;5112635;27;20047;-58
2023/05/06 06:33:48;;;;;;;30.20;19.88;;;10.90;99.90;;;;;;5131527;27;20031;-58
2023/05/06 06:36:14;;;;;;;29.05;18.58;;;11.20;99.90;;;;;;5130881;27;20050;-58
2023/05/06 06:38:40;;;;;;;26.67;19.88;;;11.20;99.90;;;;;;5115256;27;20121;-58
2023/05/06 06:41:06;;;;;;;39.28;22.77;;;11.20;99.90;;;;;;5112304;27;20068;-58
2023/05/06 06:43:32;;;;;;;26.92;19.25;;;11.20;99.90;;;;;;5130659;27;20430;-58
2023/05/06 06:45:57;;;;;;;27.23;19.67;;;11.30;99.90;;;;;;5131800;27;20495;-58
2023/05/06 06:48:23;;;;;;;31.88;20.70;;;11.50;99.90;;;;;;5131725;27;20138;-58
2023/05/06 06:50:49;;;;;;;29.65;20.08;;;11.40;99.90;;;;;;5132471;27;20034;-59
2023/05/06 06:53:15;;;;;;;36.03;22.40;;;11.50;99.90;;;;;;5113403;27;20590;-58
2023/05/06 06:55:46;;;;;;;34.17;21.60;;;11.60;99.90;;;;;;5133127;27;20041;-59
2023/05/06 06:58:12;;;;;;;31.92;20.77;;;11.60;99.90;;;;;;5114156;27;20651;-58
2023/05/06 07:00:38;;;;;;;30.13;20.10;;;11.60;99.90;;;;;;5133372;27;20062;-58
2023/05/06 07:03:04;;;;;;;31.00;20.73;;;11.70;99.90;;;;;;5132869;27;20061;-59
2023/05/06 07:05:29;;;;;;;37.28;21.85;;;11.70;99.90;;;;;;5132964;27;20502;-58
2023/05/06 07:07:55;;;;;;;29.95;19.67;;;11.90;99.90;;;;;;5114886;27;20044;-59
2023/05/06 07:10:21;;;;;;;32.55;20.60;;;11.80;99.90;;;;;;5114301;27;20038;-59
2023/05/06 07:12:47;;;;;;;29.83;21.08;;;11.80;99.90;;;;;;5132138;27;20077;-61
2023/05/06 07:15:13;;;;;;;32.50;19.25;;;11.80;99.90;;;;;;5132832;27;20055;-59
2023/05/06 07:17:38;;;;;;;30.02;21.08;;;11.90;99.90;;;;;;5132763;27;20142;-59
2023/05/06 07:20:05;;;;;;;28.27;19.75;;;12.00;99.90;;;;;;5130815;27;20074;-59
2023/05/06 07:22:30;;;;;;;29.05;19.33;;;12.20;99.90;;;;;;5132189;27;20050;-59
2023/05/06 07:24:56;;;;;;;27.00;19.88;;;12.00;99.90;;;;;;5131277;27;20100;-58
2023/05/06 07:27:23;;;;;;;27.38;20.00;;;12.30;99.90;;;;;;5132846;27;20046;-58
2023/05/06 07:29:49;;;;;;;33.25;20.80;;;12.20;99.90;;;;;;5112954;27;20047;-58
2023/05/06 07:32:15;;;;;;;30.58;20.67;;;12.20;99.90;;;;;;5132024;27;20031;-57
2023/05/06 07:34:41;;;;;;;30.50;21.73;;;12.50;99.90;;;;;;5133597;27;20395;-59
2023/05/06 07:37:07;;;;;;;30.40;20.75;;;12.60;99.90;;;;;;5132738;27;20042;-58
2023/05/06 07:39:33;;;;;;;24.92;18.05;;;12.90;99.90;;;;;;5133730;27;20091;-59
2023/05/06 07:42:00;;;;;;;26.00;19.02;;;13.70;99.90;;;;;;5133261;27;20035;-58
2023/05/06 07:44:26;;;;;;;22.40;17.40;;;14.50;99.90;;;;;;5132586;27;20431;-59
2023/05/06 07:46:52;;;;;;;19.33;15.38;;;15.20;99.90;;;;;;5131472;27;20042;-59
2023/05/06 07:49:18;;;;;;;16.90;13.23;;;15.70;99.90;;;;;;5131597;27;20039;-59
2023/05/06 07:51:44;;;;;;;15.98;13.90;;;16.20;99.90;;;;;;5131233;27;20045;-58
2023/05/06 07:54:10;;;;;;;13.85;11.20;;;16.60;99.90;;;;;;5132113;27;20123;-58
2023/05/06 07:56:35;;;;;;;15.05;11.07;;;17.50;99.90;;;;;;5135293;27;20069;-59
2023/05/06 07:59:01;;;;;;;12.93;10.60;;;17.80;99.90;;;;;;5135303;27;20780;-59
2023/05/06 08:01:28;;;;;;;14.90;10.93;;;17.60;99.90;;;;;;5135726;27;20046;-59
2023/05/06 08:03:54;;;;;;;10.45;9.30;;;17.20;99.90;;;;;;5135723;27;21320;-59
2023/05/06 08:06:19;;;;;;;13.43;10.45;;;17.50;99.90;;;;;;5135888;27;20163;-59
2023/05/06 08:08:46;;;;;;;12.27;10.43;;;17.30;99.90;;;;;;5113687;27;20038;-59
2023/05/06 08:11:12;;;;;;;12.55;9.68;;;17.30;99.90;;;;;;5135533;27;20068;-59
2023/05/06 08:13:37;;;;;;;12.32;9.00;;;17.20;99.90;;;;;;5136142;27;20860;-59
2023/05/06 08:16:05;;;;;;;13.23;9.57;;;17.30;99.90;;;;;;5135748;27;20050;-59
2023/05/06 08:18:31;;;;;;;12.85;9.77;;;17.40;99.90;;;;;;5136442;27;20039;-59
2023/05/06 08:20:57;;;;;;;14.05;9.05;;;17.50;99.90;;;;;;5135015;27;20041;-59
2023/05/06 08:23:23;;;;;;;12.45;8.82;;;17.50;99.90;;;;;;5134872;27;20587;-58
2023/05/06 08:25:49;;;;;;;11.48;8.75;;;17.80;99.90;;;;;;5134036;27;20051;-59
2023/05/06 08:28:14;;;;;;;9.85;8.27;;;17.70;99.90;;;;;;5135309;27;20104;-58
2023/05/06 08:30:40;;;;;;;9.73;7.88;;;17.70;99.90;;;;;;5116313;27;20035;-58
2023/05/06 08:33:06;;;;;;;10.70;7.97;;;18.20;99.90;;;;;;5134855;27;20050;-58
2023/05/06 08:35:32;;;;;;;10.43;7.80;;;18.80;99.90;;;;;;5117414;27;20050;-59
2023/05/06 08:37:57;;;;;;;10.57;7.85;;;19.40;99.90;;;;;;5135929;27;20110;-59
2023/05/06 08:40:25;;;;;;;11.07;8.30;;;19.50;99.90;;;;;;5137638;27;20074;-57
2023/05/06 08:42:54;;;;;;;12.40;8.93;;;19.60;99.90;;;;;;5134635;27;20061;-58
2023/05/06 08:45:20;;;;;;;10.38;8.20;;;19.60;99.90;;;;;;5133507;27;20053;-59
2023/05/06 08:47:46;;;;;;;10.68;8.55;;;19.30;99.90;;;;;;5136931;27;20043;-58
2023/05/06 08:50:12;;;;;;;10.68;7.85;;;19.40;99.90;;;;;;5116093;27;20055;-58
2023/05/06 08:52:39;;;;;;;10.75;8.20;;;19.40;99.90;;;;;;5135846;27;20043;-58
2023/05/06 08:55:06;;;;;;;10.80;8.13;;;19.50;99.90;;;;;;5115742;27;20034;-58
2023/05/06 08:57:32;;;;;;;8.93;8.00;;;19.90;99.90;;;;;;5135587;27;20127;-58
2023/05/06 08:59:59;;;;;;;9.18;7.30;;;19.70;99.90;;;;;;5134125;27;20049;-58
2023/05/06 09:02:25;;;;;;;10.70;7.03;;;20.50;99.90;;;;;;5136504;27;20178;-58
2023/05/06 09:04:52;;;;;;;9.35;7.22;;;20.30;99.90;;;;;;5133542;27;20300;-59
2023/05/06 09:07:20;;;;;;;11.52;6.38;;;20.60;99.90;;;;;;5133976;27;20090;-58
2023/05/06 09:09:46;;;;;;;7.72;5.63;;;20.80;99.90;;;;;;5135330;27;20035;-58
2023/05/06 09:12:12;;;;;;;7.50;5.53;;;21.10;99.90;;;;;;5134960;27;20146;-58
2023/05/06 09:14:39;;;;;;;9.68;6.10;;;21.10;99.90;;;;;;5133395;27;20380;-58
2023/05/06 09:17:15;;;;;;;7.22;5.40;;;21.40;99.90;;;;;;5134091;27;20046;-57
2023/05/06 09:19:41;;;;;;;7.55;5.50;;;21.50;99.90;;;;;;5134733;27;20552;-57
2023/05/06 09:22:07;;;;;;;10.23;5.65;;;22.70;99.90;;;;;;5134329;27;20046;-58
2023/05/06 09:24:33;;;;;;;8.55;5.65;;;21.30;99.90;;;;;;5133597;27;20039;-57
2023/05/06 09:27:00;;;;;;;7.85;6.03;;;21.10;99.90;;;;;;5133756;27;20103;-57
2023/05/06 09:29:26;;;;;;;7.38;5.22;;;21.10;99.90;;;;;;5134205;27;20065;-58
2023/05/06 09:31:53;;;;;;;7.90;4.85;;;20.50;99.90;;;;;;5132340;27;20035;-58
2023/05/06 09:34:20;;;;;;;10.07;6.03;;;20.40;99.90;;;;;;5133110;27;20103;-57
2023/05/06 09:36:45;;;;;;;9.32;5.07;;;20.20;99.90;;;;;;5114719;27;20114;-58
2023/05/06 09:39:11;;;;;;;8.35;5.25;;;20.20;99.90;;;;;;5133883;27;20049;-58
2023/05/06 09:41:37;;;;;;;7.68;5.20;;;20.40;99.90;;;;;;5116217;27;20035;-58
2023/05/06 09:44:03;;;;;;;11.77;5.20;;;20.30;99.90;;;;;;5132090;27;20078;-58
2023/05/06 09:46:29;;;;;;;10.05;6.43;;;20.40;99.90;;;;;;5133502;27;20039;-58
2023/05/06 09:48:56;;;;;;;7.45;4.93;;;20.90;99.90;;;;;;5115565;27;20045;-58
2023/05/06 09:51:22;;;;;;;7.65;5.50;;;21.00;99.90;;;;;;5134066;27;20046;-58
2023/05/06 09:53:48;;;;;;;8.35;5.18;;;21.00;99.90;;;;;;5111836;27;20034;-58
2023/05/06 09:56:15;;;;;;;8.23;4.80;;;20.60;99.90;;;;;;5133129;27;20035;-58
2023/05/06 09:58:41;;;;;;;6.82;4.43;;;20.60;99.90;;;;;;5134528;27;20039;-57
2023/05/06 10:01:08;;;;;;;7.72;4.43;;;20.30;99.90;;;;;;5134640;27;20051;-59
2023/05/06 10:03:35;;;;;;;8.40;4.70;;;20.40;99.90;;;;;;5134722;27;20043;-57
2023/05/06 10:06:03;;;;;;;9.05;4.68;;;20.60;99.90;;;;;;5134424;27;20106;-58
2023/05/06 10:08:32;;;;;;;11.20;5.47;;;20.70;99.90;;;;;;5133374;27;20423;-58
2023/05/06 10:10:59;;;;;;;7.38;4.70;;;21.00;99.90;;;;;;5133478;27;20030;-58
2023/05/06 10:13:26;;;;;;;7.80;4.43;;;20.90;99.90;;;;;;5131669;27;20137;-57
2023/05/06 10:15:52;;;;;;;7.15;4.50;;;21.10;99.90;;;;;;5133075;27;20070;-57
2023/05/06 10:18:20;;;;;;;7.70;4.22;;;21.40;99.90;;;;;;5114044;27;20043;-59
2023/05/06 10:20:48;;;;;;;6.53;3.38;;;21.50;99.90;;;;;;5132475;27;20114;-58
2023/05/06 10:23:45;;;;;;;10.05;4.78;;;21.20;99.90;;;;;;5132760;27;20570;-58
2023/05/06 10:26:12;;;;;;;6.45;4.18;;;21.70;99.90;;;;;;5115668;27;20050;-57
2023/05/06 10:28:42;;;;;;;10.43;5.75;;;21.70;99.90;;;;;;5133459;27;20046;-58
2023/05/06 10:31:12;;;;;;;7.78;5.90;;;21.60;99.90;;;;;;5132800;27;20043;-59
2023/05/06 10:33:40;;;;;;;9.23;5.40;;;21.40;99.90;;;;;;5132752;27;20054;-58
2023/05/06 10:36:13;;;;;;;7.93;6.20;;;21.10;99.90;;;;;;5132807;27;20078;-58
2023/05/06 10:38:44;;;;;;;11.68;7.07;;;20.90;99.90;;;;;;5134181;27;20051;-58
2023/05/06 10:41:12;;;;;;;15.65;7.65;;;20.50;99.90;;;;;;5133947;27;20191;-57
2023/05/06 10:43:40;;;;;;;12.65;7.85;;;20.40;99.90;;;;;;5134127;27;20694;-57
2023/05/06 10:46:17;;;;;;;9.82;7.18;;;19.70;99.90;;;;;;5132367;27;20058;-58
2023/05/06 10:49:05;;;;;;;10.70;6.85;;;19.30;99.90;;;;;;5132319;27;20050;-57
2023/05/06 10:51:31;;;;;;;10.18;7.63;;;19.40;99.90;;;;;;5132746;27;20043;-58
2023/05/06 10:54:02;;;;;;;9.80;7.00;;;19.00;99.90;;;;;;5130371;27;20059;-58
2023/05/06 10:56:51;;;;;;;9.90;6.43;;;18.90;99.90;;;;;;5114125;27;20072;-58
2023/05/06 10:59:21;;;;;;;12.05;8.02;;;18.70;99.90;;;;;;5118707;27;20051;-57
2023/05/06 11:01:55;;;;;;;11.18;7.32;;;18.30;99.90;;;;;;5133618;27;20042;-57
2023/05/06 11:04:22;;;;;;;10.93;7.25;;;18.20;99.90;;;;;;5114058;27;20054;-57
2023/05/06 11:06:49;;;;;;;9.50;7.43;;;18.40;99.90;;;;;;5113195;27;20434;-57
2023/05/06 11:09:25;;;;;;;11.77;8.48;;;18.00;99.90;;;;;;5132699;27;20120;-58
2023/05/06 11:12:03;;;;;;;13.07;8.32;;;18.00;99.90;;;;;;5133167;27;20126;-58
2023/05/06 11:14:34;;;;;;;14.70;8.57;;;17.90;99.90;;;;;;5131040;27;20076;-57
2023/05/06 11:17:01;;;;;;;15.98;8.90;;;17.70;99.90;;;;;;5131693;27;20043;-57
2023/05/06 11:19:32;;;;;;;14.40;9.18;;;17.50;99.90;;;;;;5132656;27;20075;-57
2023/05/06 11:22:00;;;;;;;15.05;9.40;;;17.30;99.90;;;;;;5115533;27;20054;-57
2023/05/06 11:24:28;;;;;;;15.18;10.90;;;16.90;99.90;;;;;;5131242;27;20054;-57
2023/05/06 11:26:58;;;;;;;17.10;12.05;;;16.70;99.90;;;;;;5131912;27;20117;-57
2023/05/06 11:29:25;;;;;;;17.42;11.02;;;16.40;99.90;;;;;;5131580;27;20431;-57
2023/05/06 11:31:54;;;;;;;17.88;12.75;;;16.20;99.90;;;;;;5135748;27;20130;-57
2023/05/06 11:34:26;;;;;;;17.45;12.52;;;16.00;99.90;;;;;;5117904;27;20190;-56
2023/05/06 11:37:04;;;;;;;13.40;11.40;;;16.00;99.90;;;;;;5135013;27;20035;-57
2023/05/06 11:39:31;;;;;;;15.80;10.75;;;15.80;99.90;;;;;;5136429;27;20499;-58
2023/05/06 11:42:02;;;;;;;18.55;10.18;;;15.60;99.90;;;;;;5135185;27;20055;-58
2023/05/06 11:44:33;;;;;;;14.13;11.80;;;15.70;99.90;;;;;;5135331;27;20153;-57
2023/05/06 11:47:03;;;;;;;16.42;11.13;;;15.60;99.90;;;;;;5134389;27;20058;-58
2023/05/06 11:49:29;;;;;;;15.98;10.77;;;15.30;99.90;;;;;;5134553;27;20035;-58
2023/05/06 11:51:58;;;;;;;11.90;7.57;;;15.30;99.90;;;;;;5134987;27;20549;-57
2023/05/06 11:54:25;;;;;;;13.43;7.35;;;15.10;99.90;;;;;;5134901;27;20122;-58
2023/05/06 11:56:54;;;;;;;9.20;5.40;;;15.00;99.90;;;;;;5134832;27;20529;-57
2023/05/06 11:59:37;;;;;;;6.53;3.10;;;15.20;99.90;;;;;;5135289;27;20073;-57
2023/05/06 12:02:05;;;;;;;7.03;3.30;;;14.80;99.90;;;;;;5136006;27;20074;-60
2023/05/06 12:04:42;;;;;;;7.75;3.70;;;14.70;99.90;;;;;;5134337;27;20038;-57
2023/05/06 12:07:11;;;;;;;8.02;4.00;;;14.70;99.90;;;;;;5135383;27;20483;-52
2023/05/06 12:09:40;;;;;;;7.05;2.58;;;14.80;99.90;;;;;;5136865;27;20436;-51
2023/05/06 12:12:07;;;;;;;9.57;4.25;;;14.70;99.90;;;;;;5135454;27;20600;-51
2023/05/06 12:14:35;;;;;;;10.48;3.75;;;14.50;99.90;;;;;;5134830;27;20043;-52
2023/05/06 12:17:01;;;;;;;5.95;2.70;;;14.60;99.90;;;;;;5134676;27;20045;-53
2023/05/06 12:19:28;;;;;;;7.20;2.67;;;14.50;99.90;;;;;;5135433;27;20038;-53
2023/05/06 12:21:54;;;;;;;8.07;3.22;;;14.40;99.90;;;;;;5135337;27;20281;-53
2023/05/06 12:24:29;;;;;;;5.32;2.50;;;14.50;99.90;;;;;;5134458;27;20138;-53
2023/05/06 12:26:55;;;;;;;6.05;2.72;;;14.20;99.90;;;;;;5117188;27;20497;-52
2023/05/06 12:29:21;;;;;;;5.00;2.65;;;14.20;99.90;;;;;;5135424;27;20281;-54
2023/05/06 12:31:47;;;;;;;5.68;2.80;;;14.10;99.90;;;;;;5117167;27;20083;-53
2023/05/06 12:34:17;;;;;;;7.65;2.35;;;14.30;99.90;;;;;;5135365;27;20731;-51